This is the latest recevied weather packets stored in our database for station/object LA3HX. If no packets are shown the sender has not sent any weather packets the latest 10 day(s).
| Time | Temp. | Humidity | Pressure | Rain* | Wind** | Luminosity | Snow |
|---|---|---|---|---|---|---|---|
| 1777462207 | 17.78° C | 28% | 1005.7 hPa | 0 mm | - | - | - |
| 1777460406 | 17.22° C | 31% | 1006.2 hPa | 0 mm | - | - | - |
| 1777457405 | 16.67° C | 31% | 1006.4 hPa | 0 mm | - | - | - |
| 1777448705 | 13.33° C | 34% | 1006.9 hPa | 0 mm | - | - | - |
| 1777448406 | 13.33° C | 34% | 1007.1 hPa | 0 mm | - | - | - |
| 1777447205 | 12.22° C | 49% | 1007.3 hPa | 0 mm | - | - | - |
| 1777446005 | 10.56° C | 51% | 1007.2 hPa | 0 mm | - | - | - |
| 1777440905 | 8.33° C | 54% | 1006.7 hPa | 0 mm | - | - | - |
| 1777431605 | 6.67° C | 62% | 1006.5 hPa | 0 mm | - | - | - |
| 1777430706 | 6.67° C | 61% | 1006.7 hPa | 0 mm | - | - | - |
| 1777428005 | 7.22° C | 61% | 1006.1 hPa | 0 mm | - | - | - |
| 1777424105 | 8.33° C | 55% | 1006 hPa | 0 mm | - | - | - |
| 1777421105 | 8.89° C | 52% | 1005.8 hPa | 0 mm | - | - | - |
| 1777420505 | 8.89° C | 52% | 1006.1 hPa | 0 mm | - | - | - |
| 1777419905 | 8.89° C | 52% | 1006.2 hPa | 0 mm | - | - | - |
| 1777414505 | 8.89° C | 50% | 1005.6 hPa | 0 mm | - | - | - |
| 1777410606 | 8.33° C | 50% | 1005.6 hPa | 0 mm | - | - | - |
| 1777405505 | 10° C | 46% | 1005.2 hPa | 0 mm | - | - | - |
| 1777396206 | 14.44° C | 30% | 1004.5 hPa | 0 mm | - | - | - |
| 1777395306 | 13.89° C | 28% | 1004.2 hPa | 0 mm | - | - | - |
| 1777393221 | 14.44° C | 30% | 1004.3 hPa | 0 mm | - | - | - |
| 1777392906 | 14.44° C | 30% | 1004.5 hPa | 0 mm | - | - | - |
| 1777392607 | 14.44° C | 28% | 1004.2 hPa | 0 mm | - | - | - |
| 1777392306 | 14.44° C | 28% | 1004.1 hPa | 0 mm | - | - | - |
| 1777390506 | 15.56° C | 26% | 1004.4 hPa | 0 mm | - | - | - |
* Rain latest hour (hover to see other rain measurements)
** Current wind speed in m/s (hover to see current wind gust speed)